Rock Creek, Ohio
Current Conditions -  °F | °C
As of 11:53 AM on Wednesday 26 Nov 2014 (Local Time) from KHZY Reporting Station
Overcast Overcast  
Wind Chill: -2°   Ceiling: 3600
Heat Index:   Visibility: 10mi
Dew Point: -3°   Wind: 7mph
Humidity: 70%   Direction: 80°E
Pressure: 30.1"   Gusts: NA
Location:  41.66°N, 80.86°W
Report Text: KHZY 261653Z AUTO 08006KT 10SM OVC036 02/M03 A3010 RMK AO2 SLP201 T00171033
Loading
Personal Weather Stations






























Interactive Weather Map New forecast layout! Learn more

10-Day Weather Forecast

Advertisements
Track Severe Weather on mobile